KHYS/HYS METAR and TAF weather

Enter ICAO airport designator
Station Type Date Time Source
KHYS METAR 2019/12/08 03:56 UTC NOAA

KHYS 080356Z AUTO 00000KT 10SM CLR 04/M01 A2993 RMK AO2 SLP146 T00441006


Station Type Date Time Source
KHYS Decoded METAR 2019/12/08 03:56 UTC NOAA

Hays, Hays Regional Airport, KS, United States (KHYS) 38-51N 099-16W
Dec 07, 2019 - 10:56 PM EST / 2019.12.08 0356 UTC
Wind: Calm:0
Visibility: 10 mile(s):0
Sky conditions: clear
Temperature: 39.9 F (4.4 C)
Dew Point: 30.9 F (-0.6 C)
Relative Humidity: 69%
Pressure (altimeter): 29.93 in. Hg (1013 hPa)
ob: KHYS 080356Z AUTO 00000KT 10SM CLR 04/M01 A2993 RMK AO2 SLP146 T00441006
cycle: 4

Station Type Date Time Source
KHYS TAF 2019/12/07 18:22 UTC NOAA

TAF KHYS 071720Z 0718/0818 20016G24KT P6SM FEW250
FM072200 18018KT P6SM FEW250
FM081700 33007KT P6SM BKN200

Example: see airport list